Time;durP1;ratioP1;P1;durP2;ratioP2;P2;SDS_P1;SDS_P2;PMS_P1;PMS_P2;Temp;Humidity;BMP_temperature;BMP_pressure;BME280_temperature;BME280_humidity;BME280_pressure;Samples;Min_cycle;Max_cycle;Signal;HPM_P1;HPM_P2
2021/03/28 00:01:54;;;;;;;14.15;3.90;;;7.40;71.20;;;7.60;57.14;101648.41;5074237;28;20151;-78
2021/03/28 00:04:25;;;;;;;14.07;3.95;;;7.40;70.80;;;7.56;57.42;101644.25;5087877;28;20079;-78
2021/03/28 00:07:01;;;;;;;16.30;4.00;;;7.50;70.90;;;7.65;57.52;101646.13;5094110;28;20048;-79
2021/03/28 00:09:43;;;;;;;13.23;4.30;;;7.50;71.10;;;7.71;57.81;101645.59;5093242;28;20048;-79
2021/03/28 00:12:28;;;;;;;13.88;3.67;;;7.50;71.20;;;7.68;57.72;101651.28;5094229;28;20036;-79
2021/03/28 00:15:04;;;;;;;9.57;3.78;;;7.60;71.10;;;7.70;58.46;101649.28;5093493;28;20055;-79
2021/03/28 00:17:37;;;;;;;14.48;5.32;;;7.60;71.20;;;7.71;57.59;101656.44;5094704;28;20969;-79
2021/03/28 00:20:33;;;;;;;18.48;4.45;;;7.70;70.90;;;7.75;58.81;101663.28;5094247;28;20044;-78
2021/03/28 00:23:18;;;;;;;15.13;4.18;;;7.70;71.60;;;7.76;58.73;101646.00;5093998;28;20044;-79
2021/03/28 00:25:56;;;;;;;19.60;4.25;;;7.70;71.80;;;7.76;58.02;101650.59;5094378;28;20040;-79
2021/03/28 00:28:41;;;;;;;18.00;4.38;;;7.70;71.30;;;7.79;58.25;101659.28;5094381;28;20036;-79
2021/03/28 00:31:23;;;;;;;16.58;4.07;;;7.70;71.70;;;7.82;59.03;101656.31;5093991;28;20071;-79
2021/03/28 00:34:14;;;;;;;13.50;4.63;;;7.70;71.90;;;7.82;58.92;101659.03;5093432;28;20037;-79
2021/03/28 00:36:45;;;;;;;15.75;4.22;;;7.70;72.30;;;7.82;59.32;101659.03;5092640;28;20526;-79
2021/03/28 00:39:15;;;;;;;;;;;7.70;72.40;;;7.85;59.74;101657.03;5094475;28;20044;-79
2021/03/28 00:41:58;;;;;;;17.33;4.43;;;7.70;72.60;;;7.83;59.76;101638.19;5093161;28;20399;-79
2021/03/28 00:44:26;;;;;;;14.15;4.28;;;7.70;73.10;;;7.83;59.63;101647.19;5093423;28;20044;-79
2021/03/28 00:46:59;;;;;;;14.38;4.00;;;7.70;73.20;;;7.88;59.85;101635.06;5093620;28;20051;-79
2021/03/28 00:49:32;;;;;;;17.40;4.40;;;7.70;73.30;;;7.87;59.40;101636.91;5093713;28;20036;-79
2021/03/28 00:52:06;;;;;;;16.10;4.30;;;7.60;73.50;;;7.89;60.23;101637.63;5092401;28;20051;-79
2021/03/28 00:54:47;;;;;;;17.02;3.92;;;7.60;73.90;;;7.87;59.65;101633.38;5092957;28;20092;-79
2021/03/28 00:57:26;;;;;;;14.60;4.13;;;7.60;73.80;;;7.87;59.81;101630.66;5093494;28;20519;-79
2021/03/28 01:00:34;;;;;;;15.40;4.30;;;7.60;74.00;;;7.83;60.42;101632.78;5091863;28;20048;-79
2021/03/28 01:03:10;;;;;;;18.90;5.18;;;7.50;74.60;;;7.80;60.47;101633.91;5091893;28;20647;-79
2021/03/28 01:05:45;;;;;;;19.77;4.50;;;7.50;74.60;;;7.80;60.47;101617.63;5093310;28;20048;-79
2021/03/28 01:08:22;;;;;;;19.02;4.53;;;7.50;74.80;;;7.82;60.24;101614.78;5092212;28;20048;-79
2021/03/28 01:11:13;;;;;;;19.75;4.18;;;7.50;75.10;;;7.79;60.33;101615.94;5093052;28;20040;-79
2021/03/28 01:14:18;;;;;;;16.90;4.47;;;7.50;74.40;;;7.79;60.98;101618.66;5092815;28;20085;-79
2021/03/28 01:17:36;;;;;;;16.25;4.05;;;7.60;74.60;;;7.76;60.30;101610.78;5093214;28;20044;-79
2021/03/28 01:20:41;;;;;;;17.60;4.97;;;7.60;74.30;;;7.79;60.67;101610.53;5092529;28;20424;-78
2021/03/28 01:23:32;;;;;;;11.80;4.22;;;7.60;74.50;;;7.82;61.65;101604.84;5092325;28;20051;-78
2021/03/28 01:26:33;;;;;;;14.25;4.80;;;7.60;75.30;;;7.80;60.88;101601.38;5092700;28;20537;-79
2021/03/28 01:29:14;;;;;;;18.00;4.50;;;7.60;75.00;;;7.83;60.71;101594.84;5093032;28;20036;-79
2021/03/28 01:31:51;;;;;;;17.15;4.10;;;7.70;74.60;;;7.77;61.23;101596.25;5092427;28;20044;-79
2021/03/28 01:34:23;;;;;;;13.13;4.03;;;7.70;74.20;;;7.82;60.75;101588.56;5092196;28;20068;-78
2021/03/28 01:37:04;;;;;;;18.25;4.10;;;7.70;74.30;;;7.85;60.67;101594.72;5093002;28;20480;-79
2021/03/28 01:39:45;;;;;;;18.10;4.13;;;7.70;74.60;;;7.80;60.13;101578.84;5092745;28;20372;-79
2021/03/28 01:42:28;;;;;;;18.10;4.18;;;7.80;74.20;;;7.83;60.94;101579.44;5092546;28;20161;-79
2021/03/28 01:45:06;;;;;;;19.60;4.40;;;7.70;74.40;;;7.85;60.83;101581.16;5092015;28;20044;-79
2021/03/28 01:47:46;;;;;;;16.38;3.97;;;7.70;74.30;;;7.81;60.84;101580.56;5092923;28;20048;-79
2021/03/28 01:50:39;;;;;;;13.63;4.38;;;7.80;74.00;;;7.88;60.92;101584.44;5092621;28;20062;-79
2021/03/28 01:53:28;;;;;;;16.17;4.78;;;7.80;74.70;;;7.87;60.75;101581.88;5092095;28;20078;-79
2021/03/28 01:56:00;;;;;;;12.40;4.07;;;7.80;74.20;;;7.92;60.62;101571.44;5092276;28;20044;-79
2021/03/28 01:58:42;;;;;;;13.05;4.00;;;7.80;74.60;;;7.97;60.38;101580.84;5092434;28;20044;-79
2021/03/28 02:01:25;;;;;;;15.18;3.80;;;7.80;74.30;;;7.95;60.62;101571.16;5092215;28;20043;-79
2021/03/28 02:04:18;;;;;;;19.63;4.03;;;7.80;74.30;;;7.95;61.20;101571.16;5091777;28;20114;-79
2021/03/28 02:07:06;;;;;;;16.13;4.10;;;7.90;74.30;;;7.93;61.32;101579.44;5092066;28;20430;-79
2021/03/28 02:09:47;;;;;;;13.45;3.50;;;7.90;74.50;;;7.94;61.47;101583.88;5091818;28;20044;-79
2021/03/28 02:12:20;;;;;;;14.82;3.78;;;7.90;74.60;;;7.89;61.29;101579.88;5092328;28;20503;-79
2021/03/28 02:15:11;;;;;;;15.15;4.00;;;7.90;74.50;;;7.93;61.34;101573.16;5092035;28;20044;-79
2021/03/28 02:18:00;;;;;;;16.73;4.43;;;7.90;74.80;;;7.94;61.04;101564.91;5092208;28;20048;-79
2021/03/28 02:20:40;;;;;;;20.65;4.40;;;7.90;74.90;;;7.92;61.49;101566.91;5095672;28;20145;-78
2021/03/28 02:23:22;;;;;;;16.42;4.10;;;7.90;74.70;;;7.96;61.47;101572.91;5095809;28;20059;-79
2021/03/28 02:25:57;;;;;;;14.95;3.78;;;7.90;74.70;;;7.96;61.29;101567.47;5096698;28;20046;-79
2021/03/28 02:28:44;;;;;;;17.70;3.92;;;7.90;74.80;;;8.00;61.54;101569.75;5096340;28;20059;-79
2021/03/28 02:31:27;;;;;;;11.95;3.42;;;7.90;74.60;;;8.02;61.43;101577.75;5096196;28;20044;-79
2021/03/28 02:34:02;;;;;;;14.50;3.83;;;7.90;74.60;;;8.04;61.17;101570.31;5095889;28;20046;-79
2021/03/28 02:36:38;;;;;;;17.02;3.78;;;7.90;74.80;;;7.96;61.79;101578.31;5095706;28;20056;-79
2021/03/28 02:39:38;;;;;;;15.57;3.80;;;8.00;74.50;;;7.97;61.55;101580.84;5096120;28;20461;-79
2021/03/28 02:42:16;;;;;;;16.20;3.77;;;8.00;75.00;;;8.01;62.01;101582.31;5096310;28;20059;-79
2021/03/28 02:45:19;;;;;;;14.45;3.33;;;7.90;74.80;;;8.06;61.66;101583.75;5095576;28;20066;-79
2021/03/28 02:48:41;;;;;;;13.98;3.22;;;7.90;74.70;;;8.03;61.53;101580.31;5096350;28;20048;-79
2021/03/28 02:51:28;;;;;;;12.23;3.40;;;8.00;74.80;;;8.05;61.41;101579.31;5095923;28;20112;-79
2021/03/28 02:54:36;;;;;;;14.20;3.40;;;7.90;74.70;;;8.03;61.19;101579.44;5095585;28;20044;-79
2021/03/28 02:57:33;;;;;;;17.50;3.78;;;8.00;74.90;;;8.07;61.22;101567.31;5095669;28;20044;-79
2021/03/28 03:00:24;;;;;;;9.50;3.30;;;8.00;74.70;;;8.06;61.66;101576.47;5095404;28;20055;-79
2021/03/28 03:03:42;;;;;;;20.75;4.45;;;7.90;74.90;;;8.06;61.23;101567.47;5095015;28;20074;-79
2021/03/28 03:07:02;;;;;;;12.38;3.30;;;7.90;75.10;;;7.99;61.73;101578.00;5084323;28;20431;-79
2021/03/28 03:09:48;;;;;;;14.25;3.40;;;7.80;75.30;;;8.02;61.65;101575.03;5092365;28;20064;-79
2021/03/28 03:12:31;;;;;;;14.75;3.50;;;7.80;76.00;;;7.99;61.73;101568.03;5093636;28;20419;-79
2021/03/28 03:15:32;;;;;;;18.25;4.00;;;7.80;75.90;;;8.00;61.87;101571.59;5095173;28;20681;-79
2021/03/28 03:19:04;;;;;;;17.47;3.70;;;7.70;75.90;;;7.97;62.28;101574.59;5081453;28;20060;-77
2021/03/28 03:22:37;;;;;;;14.07;3.33;;;7.70;76.40;;;7.93;62.45;101568.59;5076708;28;20071;-78
2021/03/28 03:25:44;;;;;;;13.35;3.03;;;7.80;76.20;;;7.98;62.45;101565.47;5092431;28;20064;-77
2021/03/28 03:29:03;;;;;;;14.50;3.10;;;7.80;76.80;;;7.96;62.53;101572.91;5075003;28;20581;-78
2021/03/28 03:32:29;;;;;;;11.80;3.00;;;7.80;76.40;;;7.96;62.30;101567.47;5089715;28;20075;-78
2021/03/28 03:35:27;;;;;;;10.40;2.70;;;7.80;76.40;;;7.96;62.94;101573.75;5094850;28;20761;-78
2021/03/28 03:38:43;;;;;;;13.70;2.95;;;7.80;76.60;;;7.97;62.42;101574.59;5094962;28;20394;-78
2021/03/28 03:41:58;;;;;;;13.32;3.00;;;7.80;76.50;;;8.01;62.71;101568.75;5095022;28;20051;-78
2021/03/28 03:45:01;;;;;;;13.73;3.20;;;7.80;76.80;;;7.97;62.95;101574.59;5094686;28;20147;-78
2021/03/28 03:47:36;;;;;;;14.85;3.10;;;7.90;76.60;;;7.99;63.37;101565.31;5094612;28;20904;-78
2021/03/28 03:50:14;;;;;;;16.83;3.55;;;7.80;76.70;;;8.00;63.50;101577.03;5094379;28;20055;-78
2021/03/28 03:53:14;;;;;;;11.32;2.80;;;7.80;77.20;;;7.99;62.59;101569.88;5094103;28;20408;-78
2021/03/28 03:55:50;;;;;;;14.25;3.38;;;7.80;77.10;;;7.99;63.21;101561.75;5094386;28;20051;-78
2021/03/28 03:58:30;;;;;;;16.23;3.45;;;7.90;76.80;;;8.03;63.26;101568.59;5094471;28;20044;-78
2021/03/28 04:01:18;;;;;;;15.77;3.30;;;7.80;77.10;;;8.04;62.97;101573.03;5094827;28;20044;-78
2021/03/28 04:04:04;;;;;;;15.07;2.80;;;7.80;77.20;;;8.06;62.84;101570.19;5093755;28;20040;-78
2021/03/28 04:07:26;;;;;;;14.15;2.30;;;7.80;76.90;;;8.06;63.07;101573.75;5094053;28;20036;-78
2021/03/28 04:10:07;;;;;;;13.52;2.50;;;7.80;77.20;;;8.06;62.95;101568.31;5010427;28;20069;-78
2021/03/28 04:12:55;;;;;;;13.95;2.90;;;7.80;77.30;;;8.01;62.91;101573.31;5094430;28;20040;-78
2021/03/28 04:15:41;;;;;;;13.70;2.80;;;7.90;77.00;;;8.00;62.77;101572.47;5093962;28;20504;-78
2021/03/28 04:18:36;;;;;;;12.63;2.90;;;7.80;76.90;;;8.01;62.54;101576.91;5093898;28;20446;-78
2021/03/28 04:21:22;;;;;;;12.73;2.67;;;7.90;76.80;;;8.00;62.92;101580.59;5094473;28;20107;-78
2021/03/28 04:24:04;;;;;;;11.20;3.13;;;7.80;76.90;;;7.98;62.99;101584.44;5093836;28;20048;-78
2021/03/28 04:26:52;;;;;;;17.45;3.35;;;7.80;77.10;;;7.99;63.07;101578.88;5094017;28;20037;-78
2021/03/28 04:29:20;;;;;;;14.88;2.72;;;7.80;77.20;;;7.94;63.44;101589.28;5094104;28;20044;-78
2021/03/28 04:32:36;;;;;;;11.85;2.60;;;7.80;76.90;;;7.95;62.70;101584.72;5093338;28;20655;-78
2021/03/28 04:35:25;;;;;;;14.02;2.90;;;7.90;76.80;;;8.00;62.57;101577.03;5093209;28;20032;-78
2021/03/28 04:38:22;;;;;;;12.40;3.03;;;7.80;76.70;;;8.04;62.73;101581.16;5093598;28;20480;-78
2021/03/28 04:41:00;;;;;;;13.73;3.13;;;7.90;77.10;;;7.99;62.83;101576.16;5093017;28;20079;-78
2021/03/28 04:44:15;;;;;;;10.07;2.40;;;7.90;76.80;;;8.03;62.86;101580.31;5091699;28;20036;-78
2021/03/28 04:47:33;;;;;;;13.02;2.60;;;7.90;76.70;;;8.00;63.17;101575.16;5088022;28;20055;-78
2021/03/28 04:50:33;;;;;;;14.77;3.05;;;8.00;76.30;;;8.06;62.83;101568.31;5093332;28;20116;-78
2021/03/28 04:54:03;;;;;;;14.63;3.10;;;8.00;76.60;;;8.04;63.12;101578.47;5093210;28;20156;-78
2021/03/28 04:57:03;;;;;;;13.80;2.80;;;8.00;76.40;;;8.11;62.64;101576.91;5093284;28;20048;-78
2021/03/28 05:00:26;;;;;;;12.13;3.00;;;8.00;76.40;;;8.14;62.27;101592.84;5093310;28;20500;-78
2021/03/28 05:03:30;;;;;;;13.82;2.72;;;8.00;76.60;;;8.15;62.71;101582.91;5074133;28;20063;-78
2021/03/28 05:06:36;;;;;;;10.40;2.38;;;8.10;76.80;;;8.17;62.86;101580.91;5093119;28;20511;-78
2021/03/28 05:09:37;;;;;;;10.30;2.45;;;8.10;76.50;;;8.17;62.80;101584.44;5091502;28;20048;-78
2021/03/28 05:12:40;;;;;;;8.68;2.50;;;8.10;76.30;;;8.17;62.64;101579.03;5092880;28;20044;-78
2021/03/28 05:15:52;;;;;;;11.25;2.80;;;8.20;76.20;;;8.18;63.03;101583.44;5091443;28;20051;-78
2021/03/28 05:19:08;;;;;;;11.10;2.90;;;8.20;76.00;;;8.18;62.91;101578.00;5093155;28;20042;-78
2021/03/28 05:22:28;;;;;;;13.20;2.90;;;8.20;76.20;;;8.18;62.86;101588.00;5093258;28;20075;-78
2021/03/28 05:25:34;;;;;;;15.40;2.90;;;8.20;76.10;;;8.19;63.33;101590.59;5092970;28;20051;-79
2021/03/28 05:28:48;;;;;;;16.10;4.13;;;8.20;76.20;;;8.14;63.18;101582.00;5055648;28;20097;-78
2021/03/28 05:32:14;;;;;;;11.90;2.80;;;8.30;75.90;;;8.20;63.58;101581.44;5092988;28;20058;-78
2021/03/28 05:35:25;;;;;;;9.60;2.13;;;8.30;75.90;;;8.21;62.63;101577.75;5092934;28;20138;-78
2021/03/28 05:38:55;;;;;;;10.55;2.30;;;8.30;75.70;;;8.25;63.19;101582.88;5087552;28;20056;-78
2021/03/28 05:42:00;;;;;;;10.57;2.70;;;8.30;76.00;;;8.22;63.13;101576.75;5071576;28;20798;-78
2021/03/28 05:45:14;;;;;;;12.77;2.65;;;8.30;76.10;;;8.25;62.89;101580.19;5092101;28;20043;-79
2021/03/28 05:48:00;;;;;;;13.90;3.08;;;8.30;76.30;;;8.24;63.01;101579.28;5085368;28;20053;-78
2021/03/28 05:50:51;;;;;;;13.32;2.65;;;8.40;75.90;;;8.20;63.18;101569.75;5092986;28;20047;-79
2021/03/28 05:54:06;;;;;;;9.43;2.92;;;8.40;75.70;;;8.23;63.66;101570.31;5093062;28;20043;-80
2021/03/28 05:57:33;;;;;;;11.43;2.50;;;8.40;75.90;;;8.29;63.38;101579.72;5096298;28;20071;-80
2021/03/28 06:00:31;;;;;;;9.13;2.13;;;8.50;76.00;;;8.22;63.02;101560.47;5093696;28;20040;-79
2021/03/28 06:03:35;;;;;;;7.78;2.33;;;8.60;75.90;;;8.18;64.03;101567.16;5061353;28;20052;-79
2021/03/28 06:07:00;;;;;;;9.20;2.20;;;8.70;75.40;;;8.20;63.74;101564.31;5094355;28;20052;-79
2021/03/28 06:10:36;;;;;;;15.98;2.20;;;8.70;75.00;;;8.27;63.78;101575.47;5076825;28;20066;-79
2021/03/28 06:13:30;;;;;;;10.65;2.40;;;8.80;75.00;;;8.32;63.83;101574.03;5031901;28;20053;-79
2021/03/28 06:16:20;;;;;;;10.88;2.55;;;8.80;74.90;;;8.33;63.49;101572.16;5031423;28;20121;-79
2021/03/28 06:19:34;;;;;;;9.85;2.42;;;8.80;75.10;;;8.36;63.67;101569.19;5095063;28;20036;-79
2021/03/28 06:22:56;;;;;;;12.52;3.42;;;8.90;75.00;;;8.46;63.67;101572.75;5092927;28;20070;-79
2021/03/28 06:26:00;;;;;;;;;;;8.90;75.00;;;8.48;63.93;101570.75;5071042;28;20056;-79
2021/03/28 06:29:27;;;;;;;9.27;2.42;;;8.90;75.00;;;8.48;63.08;101578.03;5096022;28;19997;-79
2021/03/28 06:32:48;;;;;;;6.85;2.20;;;9.00;74.90;;;8.46;63.78;101578.19;5095523;28;20119;-79
2021/03/28 06:36:05;;;;;;;9.07;2.40;;;9.00;74.70;;;8.49;64.22;101580.63;5095968;28;20040;-80
2021/03/28 06:39:58;;;;;;;12.00;2.50;;;9.00;75.10;;;8.51;64.50;101572.31;5064272;28;20060;-79
2021/03/28 06:42:58;;;;;;;8.40;2.28;;;9.00;75.20;;;8.49;63.75;101577.03;5094738;28;20415;-79
2021/03/28 06:46:06;;;;;;;11.00;2.40;;;9.00;75.00;;;8.47;64.07;101571.75;5094395;28;20040;-79
2021/03/28 06:49:45;;;;;;;9.55;2.50;;;9.10;74.90;;;8.51;64.10;101575.03;5094496;28;20032;-79
2021/03/28 06:52:44;;;;;;;9.93;3.05;;;9.10;75.00;;;8.50;63.83;101571.47;5031224;28;20064;-79
2021/03/28 06:55:38;;;;;;;9.38;2.58;;;9.10;74.90;;;8.52;64.54;101574.88;5031376;28;20058;-80
2021/03/28 06:59:06;;;;;;;11.52;2.90;;;9.10;74.80;;;8.49;64.15;101564.34;5085869;28;20495;-79
2021/03/28 07:02:19;;;;;;;10.98;2.88;;;9.20;74.80;;;8.56;64.71;101570.88;5095645;28;20480;-79
2021/03/28 07:05:28;;;;;;;11.85;2.60;;;9.20;75.00;;;8.60;64.78;101564.19;5094896;28;20040;-79
2021/03/28 07:08:38;;;;;;;16.52;3.00;;;9.20;74.70;;;8.64;64.14;101566.59;5091715;28;20052;-79
2021/03/28 07:11:39;;;;;;;14.05;3.08;;;9.30;74.70;;;8.66;64.05;101564.56;5098323;28;20144;-79
2021/03/28 07:15:01;;;;;;;10.90;2.70;;;9.30;74.90;;;8.67;64.22;101566.31;5062258;28;20056;-79
2021/03/28 07:18:23;;;;;;;14.35;2.97;;;9.40;74.80;;;8.69;64.13;101569.72;5095690;28;20048;-79
2021/03/28 07:21:34;;;;;;;6.72;2.50;;;9.40;74.90;;;8.77;64.34;101567.13;5099164;28;20067;-79
2021/03/28 07:24:41;;;;;;;12.02;3.30;;;9.40;74.70;;;8.76;65.12;101565.44;5098373;28;20051;-79
2021/03/28 07:28:10;;;;;;;10.82;2.20;;;9.50;74.90;;;8.74;64.38;101564.72;5098832;28;20097;-79
2021/03/28 07:31:37;;;;;;;8.60;2.40;;;9.60;74.50;;;8.76;64.66;101565.44;5036943;28;20227;-79
2021/03/28 07:35:18;;;;;;;11.05;2.95;;;9.70;74.10;;;8.85;64.53;101569.94;5036569;28;20496;-80
2021/03/28 07:38:49;;;;;;;9.52;2.55;;;9.70;74.30;;;8.90;64.34;101566.81;5097892;28;20043;-80
2021/03/28 07:41:58;;;;;;;14.50;3.53;;;9.70;73.90;;;8.93;64.42;101575.53;5097602;28;20488;-80
2021/03/28 07:45:28;;;;;;;11.77;3.03;;;9.80;74.00;;;8.94;64.54;101576.38;5097176;28;20490;-79
2021/03/28 07:48:31;;;;;;;12.82;3.85;;;9.90;73.90;;;8.95;64.86;101569.94;5098920;28;20431;-80
2021/03/28 07:51:45;;;;;;;7.93;3.05;;;10.00;73.80;;;8.95;64.89;101565.38;5099262;28;20039;-80
2021/03/28 07:54:58;;;;;;;10.68;2.80;;;10.00;73.40;;;8.94;64.75;101577.22;5057252;28;20059;-80
2021/03/28 07:58:01;;;;;;;10.20;2.78;;;10.10;73.20;;;9.00;65.22;101582.06;5098669;28;20048;-80
2021/03/28 08:00:55;;;;;;;8.27;2.72;;;10.20;73.10;;;9.07;65.59;101579.59;5094574;28;20055;-78
2021/03/28 08:04:20;;;;;;;12.35;3.10;;;10.30;73.40;;;9.10;64.92;101584.75;5091192;28;20043;-78
2021/03/28 08:07:19;;;;;;;10.02;2.65;;;10.40;72.90;;;9.16;65.11;101583.31;5093846;28;20036;-78
2021/03/28 08:10:51;;;;;;;15.38;3.40;;;10.50;72.50;;;9.22;65.38;101582.69;5095054;28;20044;-79
2021/03/28 08:14:16;;;;;;;9.13;2.28;;;10.60;72.60;;;9.28;65.06;101582.09;5096544;28;20051;-79
2021/03/28 08:17:16;;;;;;;7.72;2.45;;;10.70;72.30;;;9.32;65.51;101590.81;5095031;28;20043;-79
2021/03/28 08:20:52;;;;;;;13.55;2.67;;;10.80;72.00;;;9.41;65.44;101589.06;5096702;28;20083;-79
2021/03/28 08:24:09;;;;;;;10.73;2.72;;;11.00;72.30;;;9.45;65.31;101587.75;5094870;28;20089;-79
2021/03/28 08:27:23;;;;;;;10.93;3.08;;;11.10;71.60;;;9.52;66.17;101594.25;5094355;28;20044;-78
2021/03/28 08:30:09;;;;;;;11.18;2.88;;;11.30;71.30;;;9.57;65.61;101591.97;5095622;28;20040;-78
2021/03/28 08:33:16;;;;;;;10.27;2.58;;;11.40;70.80;;;9.62;65.32;101592.38;5096042;28;20096;-79
2021/03/28 08:36:03;;;;;;;12.75;3.22;;;11.40;70.20;;;9.69;65.63;101592.59;5096545;28;20067;-81
2021/03/28 08:38:56;;;;;;;9.73;2.70;;;11.60;70.60;;;9.76;65.82;101602.72;5096780;28;20058;-79
2021/03/28 08:42:13;;;;;;;10.18;2.80;;;11.70;70.50;;;9.81;65.46;101604.13;5096997;28;20039;-79
2021/03/28 08:45:02;;;;;;;12.65;2.70;;;11.70;70.00;;;9.86;66.00;101597.25;5096350;28;20040;-79
2021/03/28 08:48:17;;;;;;;8.35;2.53;;;11.90;70.50;;;9.93;65.57;101592.03;5097128;28;20083;-79
2021/03/28 08:51:00;;;;;;;12.02;2.80;;;11.90;69.80;;;10.01;65.94;101588.53;5048567;28;20158;-79
2021/03/28 08:53:53;;;;;;;14.40;2.67;;;12.00;70.00;;;10.08;65.97;101595.91;5096835;28;20040;-79
2021/03/28 08:56:40;;;;;;;12.27;2.42;;;12.10;69.80;;;10.12;65.26;101591.03;5096941;28;20515;-79
2021/03/28 08:59:33;;;;;;;9.25;3.00;;;12.20;69.50;;;10.15;65.05;101597.00;5096929;28;20873;-79
2021/03/28 09:02:17;;;;;;;14.80;2.80;;;12.20;68.60;;;10.22;65.16;101599.09;5097016;28;20039;-79
2021/03/28 09:05:01;;;;;;;14.15;2.75;;;12.20;68.90;;;10.28;65.52;101593.03;5096627;28;20048;-79
2021/03/28 09:07:41;;;;;;;14.35;2.90;;;12.30;68.80;;;10.39;66.17;101592.81;5097418;28;20063;-79
2021/03/28 09:10:42;;;;;;;7.55;2.38;;;12.40;69.30;;;10.48;65.74;101586.44;5098101;28;20065;-79
2021/03/28 09:13:39;;;;;;;;;;;12.40;69.50;;;10.55;65.52;101584.81;5098107;28;20417;-79
2021/03/28 09:16:19;;;;;;;13.98;2.53;;;12.40;69.90;;;10.64;66.26;101590.31;5095575;28;19924;-79
2021/03/28 09:18:56;;;;;;;9.10;2.33;;;12.50;70.00;;;10.73;65.74;101575.75;5094812;28;20495;-79
2021/03/28 09:21:46;;;;;;;11.32;2.65;;;12.50;70.20;;;10.76;64.70;101578.16;5094149;28;20503;-79
2021/03/28 09:24:43;;;;;;;14.52;3.40;;;12.50;69.30;;;10.76;64.58;101572.72;5095454;28;20048;-79
2021/03/28 09:27:44;;;;;;;8.68;2.30;;;12.50;69.00;;;10.79;64.09;101568.81;5096245;28;20078;-79
2021/03/28 09:30:25;;;;;;;10.35;2.38;;;12.60;68.30;;;10.80;63.73;101576.81;5094903;28;20044;-79
2021/03/28 09:33:29;;;;;;;12.52;2.60;;;12.60;68.70;;;10.81;65.17;101573.06;5095562;28;20113;-79
2021/03/28 09:36:47;;;;;;;11.70;2.97;;;12.70;69.50;;;10.88;65.03;101574.13;5093303;28;20044;-79
2021/03/28 09:39:54;;;;;;;10.25;2.38;;;12.80;68.90;;;10.98;64.37;101578.63;5087645;28;20455;-79
2021/03/28 09:43:02;;;;;;;10.48;2.97;;;12.90;69.00;;;11.06;64.79;101570.50;5084053;28;20059;-79
2021/03/28 09:46:38;;;;;;;14.82;2.65;;;13.00;68.30;;;11.11;63.81;101560.81;5093519;28;20059;-79
2021/03/28 09:49:38;;;;;;;10.57;2.85;;;13.00;68.10;;;11.06;63.44;101562.31;5090519;28;20500;-80
2021/03/28 09:52:52;;;;;;;12.98;2.83;;;12.90;67.60;;;11.11;64.11;101562.69;5093909;28;20043;-81
2021/03/28 09:55:56;;;;;;;13.10;2.35;;;12.90;68.10;;;11.16;63.99;101549.44;5082656;28;20044;-80
2021/03/28 09:59:03;;;;;;;8.88;1.90;;;13.00;68.00;;;11.19;58.67;101550.97;5077158;28;20091;-80
2021/03/28 10:01:53;;;;;;;9.77;2.40;;;13.00;64.20;;;11.20;57.38;101531.75;5073803;28;20040;-80
2021/03/28 10:05:01;;;;;;;9.70;1.45;;;12.90;62.20;;;11.28;58.07;101525.47;5073291;28;20475;-80
2021/03/28 10:07:38;;;;;;;9.95;1.80;;;13.00;62.10;;;11.43;58.07;101539.34;5038919;28;20056;-80
2021/03/28 10:10:31;;;;;;;6.05;1.48;;;13.10;62.30;;;11.48;56.58;101536.94;5074349;28;20044;-81
2021/03/28 10:13:15;;;;;;;8.27;1.90;;;13.20;60.40;;;11.53;55.21;101543.63;5071649;28;20079;-80
2021/03/28 10:16:00;;;;;;;6.68;1.65;;;13.20;59.70;;;11.64;54.33;101539.75;5073418;28;20040;-81
2021/03/28 10:18:59;;;;;;;10.40;1.42;;;13.20;59.40;;;11.64;55.22;101526.09;5073857;28;20131;-81
2021/03/28 10:21:58;;;;;;;8.95;1.65;;;13.30;59.60;;;11.67;53.54;101533.97;5089463;28;20149;-80
2021/03/28 10:25:02;;;;;;;9.63;1.90;;;13.40;58.10;;;11.71;54.91;101548.13;5072472;28;20048;-80
2021/03/28 10:28:03;;;;;;;10.80;1.98;;;13.50;59.20;;;11.74;54.88;101540.44;5073127;28;20037;-80
2021/03/28 10:30:45;;;;;;;5.40;2.00;;;13.60;58.50;;;11.84;55.15;101536.72;5072327;28;20045;-80
2021/03/28 10:33:30;;;;;;;7.28;1.90;;;13.70;58.40;;;11.87;54.20;101544.56;5072809;28;20056;-80
2021/03/28 10:36:25;;;;;;;9.32;2.10;;;13.70;58.10;;;11.93;54.96;101533.00;5073058;28;20071;-80
2021/03/28 10:39:12;;;;;;;10.50;2.10;;;13.80;57.80;;;12.01;55.96;101543.91;5072671;28;20049;-80
2021/03/28 10:42:07;;;;;;;8.40;1.63;;;13.90;58.60;;;12.08;54.96;101550.41;5075922;28;20080;-80
2021/03/28 10:45:28;;;;;;;8.88;2.15;;;14.00;57.80;;;12.20;54.65;101555.53;5093606;28;20049;-80
2021/03/28 10:48:36;;;;;;;11.32;2.33;;;14.20;57.40;;;12.22;54.92;101543.44;5077816;28;20135;-80
2021/03/28 10:52:04;;;;;;;7.63;2.08;;;14.30;57.30;;;12.24;54.82;101543.25;5042904;28;20117;-80
2021/03/28 10:55:29;;;;;;;10.43;1.80;;;14.50;56.20;;;12.29;53.70;101530.81;5075755;28;20053;-80
2021/03/28 10:59:13;;;;;;;11.85;2.05;;;14.40;55.50;;;12.30;54.29;101540.72;5014681;28;20048;-80
2021/03/28 11:02:33;;;;;;;10.15;2.08;;;14.40;56.40;;;12.33;53.62;101539.50;5077222;28;20056;-80
2021/03/28 11:05:45;;;;;;;10.43;1.85;;;14.40;55.90;;;12.33;52.45;101531.31;5074471;28;20075;-81
2021/03/28 11:08:42;;;;;;;12.38;2.28;;;14.50;55.60;;;12.34;53.74;101530.31;5075269;28;20048;-80
2021/03/28 11:11:49;;;;;;;9.88;2.00;;;14.40;55.20;;;12.35;53.74;101510.16;5073283;28;20554;-80
2021/03/28 11:15:11;;;;;;;8.63;2.03;;;14.40;55.60;;;12.40;53.31;101510.50;5075882;28;20051;-80
2021/03/28 11:18:19;;;;;;;10.23;2.30;;;14.40;55.20;;;12.38;51.92;101526.22;5075540;28;20052;-80
2021/03/28 11:20:59;;;;;;;11.25;2.15;;;14.40;55.20;;;12.39;51.58;101525.16;5074915;28;20403;-80
2021/03/28 11:23:58;;;;;;;5.57;1.70;;;14.30;54.90;;;12.39;51.09;101524.31;5074022;28;20040;-82
2021/03/28 11:27:19;;;;;;;10.35;2.20;;;14.40;54.90;;;12.36;53.09;101535.59;5072935;28;20060;-81
2021/03/28 11:30:30;;;;;;;10.50;1.88;;;14.40;55.20;;;12.43;53.58;101529.28;5081853;28;20040;-81
2021/03/28 11:33:12;;;;;;;10.90;2.05;;;14.50;55.10;;;12.46;52.92;101522.63;5030675;28;20053;-81
2021/03/28 11:35:44;;;;;;;8.65;1.90;;;14.50;55.30;;;12.45;52.50;101527.22;5014324;28;20084;-81
2021/03/28 11:38:41;;;;;;;7.00;1.73;;;14.60;54.60;;;12.45;54.33;101532.69;5072100;28;20060;-81
2021/03/28 11:41:51;;;;;;;12.27;2.80;;;14.60;56.10;;;12.50;53.56;101519.34;5093546;28;20484;-81
2021/03/28 11:44:36;;;;;;;10.30;2.45;;;14.60;55.30;;;12.49;53.13;101539.50;5093205;28;20044;-81
2021/03/28 11:47:33;;;;;;;9.30;2.10;;;14.70;54.90;;;12.51;53.46;101537.47;5073803;28;20048;-81
2021/03/28 11:50:35;;;;;;;8.18;2.35;;;14.70;55.10;;;12.54;53.47;101528.06;5085824;28;20841;-82
2021/03/28 11:53:11;;;;;;;13.05;2.25;;;14.70;55.30;;;12.51;52.47;101540.19;5092883;28;20040;-81
2021/03/28 11:55:48;;;;;;;11.30;2.38;;;14.70;54.90;;;12.51;53.34;101532.00;5093947;28;20093;-81
2021/03/28 11:58:57;;;;;;;14.07;2.92;;;14.60;54.50;;;12.52;53.77;101533.69;5093773;28;20055;-81
2021/03/28 12:02:25;;;;;;;9.38;2.10;;;14.60;55.30;;;12.52;54.22;101528.22;5092499;28;20499;-81
2021/03/28 12:05:50;;;;;;;10.65;2.60;;;14.60;56.20;;;12.52;52.34;101533.69;5079797;28;20056;-81
2021/03/28 12:08:19;;;;;;;8.18;2.00;;;14.60;54.60;;;12.53;52.67;101540.03;5093748;28;20044;-81
2021/03/28 12:10:47;;;;;;;8.80;2.00;;;14.60;55.10;;;12.57;53.97;101533.19;5093258;28;20048;-82
2021/03/28 12:13:46;;;;;;;7.25;2.13;;;14.60;56.10;;;12.58;53.38;101531.31;5093102;28;20428;-82
2021/03/28 12:16:13;;;;;;;9.65;2.58;;;14.60;55.30;;;12.61;52.69;101533.69;5090077;28;20101;-82
2021/03/28 12:18:57;;;;;;;8.35;2.58;;;14.60;54.30;;;12.65;52.79;101538.63;5085490;28;20051;-82
2021/03/28 12:22:02;;;;;;;9.63;2.08;;;14.60;55.20;;;12.62;52.26;101530.81;5084953;28;20057;-80
2021/03/28 12:24:33;;;;;;;9.98;2.00;;;14.70;55.40;;;12.68;52.39;101529.25;5029854;28;20048;-83
2021/03/28 12:27:20;;;;;;;8.18;2.20;;;14.80;54.80;;;12.74;53.61;101533.13;5080094;28;20056;-82
2021/03/28 12:29:50;;;;;;;9.48;2.45;;;14.80;55.20;;;12.79;54.81;101533.47;5091020;28;20040;-83